sensor_id;sensor_type;location;lat;lon;timestamp;P1;durP1;ratioP1;P2;durP2;ratioP2
44508;SDS011;30214;52.246;14.408;2023-08-20T00:00:59;18.15;;;15.45;;
44508;SDS011;30214;52.246;14.408;2023-08-20T00:03:29;19.90;;;15.75;;
44508;SDS011;30214;52.246;14.408;2023-08-20T00:05:56;18.65;;;16.73;;
44508;SDS011;30214;52.246;14.408;2023-08-20T00:08:23;17.95;;;16.15;;
44508;SDS011;30214;52.246;14.408;2023-08-20T00:10:52;21.08;;;16.13;;
44508;SDS011;30214;52.246;14.408;2023-08-20T00:13:19;15.88;;;14.38;;
44508;SDS011;30214;52.246;14.408;2023-08-20T00:15:46;20.55;;;16.05;;
44508;SDS011;30214;52.246;14.408;2023-08-20T00:18:16;17.77;;;15.02;;
44508;SDS011;30214;52.246;14.408;2023-08-20T00:20:44;18.95;;;13.90;;
44508;SDS011;30214;52.246;14.408;2023-08-20T00:23:12;18.25;;;13.77;;
44508;SDS011;30214;52.246;14.408;2023-08-20T00:25:40;17.60;;;13.45;;
44508;SDS011;30214;52.246;14.408;2023-08-20T00:28:08;17.08;;;15.35;;
44508;SDS011;30214;52.246;14.408;2023-08-20T00:30:35;20.50;;;14.05;;
44508;SDS011;30214;52.246;14.408;2023-08-20T00:33:02;18.42;;;15.18;;
44508;SDS011;30214;52.246;14.408;2023-08-20T00:35:30;17.92;;;15.85;;
44508;SDS011;30214;52.246;14.408;2023-08-20T00:37:57;16.70;;;13.80;;
44508;SDS011;30214;52.246;14.408;2023-08-20T00:40:26;14.93;;;13.38;;
44508;SDS011;30214;52.246;14.408;2023-08-20T00:42:53;19.80;;;14.65;;
44508;SDS011;30214;52.246;14.408;2023-08-20T00:45:22;22.00;;;15.13;;
44508;SDS011;30214;52.246;14.408;2023-08-20T00:47:50;18.15;;;16.45;;
44508;SDS011;30214;52.246;14.408;2023-08-20T00:50:18;20.15;;;16.55;;
44508;SDS011;30214;52.246;14.408;2023-08-20T00:52:46;18.30;;;16.08;;
44508;SDS011;30214;52.246;14.408;2023-08-20T00:55:13;18.20;;;16.30;;
44508;SDS011;30214;52.246;14.408;2023-08-20T00:57:40;17.65;;;15.82;;
44508;SDS011;30214;52.246;14.408;2023-08-20T01:00:08;16.55;;;14.70;;
44508;SDS011;30214;52.246;14.408;2023-08-20T01:02:38;16.05;;;14.35;;
44508;SDS011;30214;52.246;14.408;2023-08-20T01:05:06;17.50;;;15.63;;
44508;SDS011;30214;52.246;14.408;2023-08-20T01:07:38;17.98;;;16.08;;
44508;SDS011;30214;52.246;14.408;2023-08-20T01:10:16;18.70;;;15.85;;
44508;SDS011;30214;52.246;14.408;2023-08-20T01:12:48;16.50;;;14.75;;
44508;SDS011;30214;52.246;14.408;2023-08-20T01:15:16;19.55;;;13.43;;
44508;SDS011;30214;52.246;14.408;2023-08-20T01:17:45;18.27;;;13.15;;
44508;SDS011;30214;52.246;14.408;2023-08-20T01:20:13;24.48;;;16.25;;
44508;SDS011;30214;52.246;14.408;2023-08-20T01:22:51;19.23;;;15.48;;
44508;SDS011;30214;52.246;14.408;2023-08-20T01:25:46;16.95;;;15.32;;
44508;SDS011;30214;52.246;14.408;2023-08-20T01:28:28;18.77;;;16.75;;
44508;SDS011;30214;52.246;14.408;2023-08-20T01:30:57;18.00;;;16.20;;
44508;SDS011;30214;52.246;14.408;2023-08-20T01:33:26;18.23;;;16.17;;
44508;SDS011;30214;52.246;14.408;2023-08-20T01:35:54;21.67;;;15.40;;
44508;SDS011;30214;52.246;14.408;2023-08-20T01:38:21;20.52;;;16.05;;
44508;SDS011;30214;52.246;14.408;2023-08-20T01:40:51;19.02;;;16.00;;
44508;SDS011;30214;52.246;14.408;2023-08-20T01:43:18;22.20;;;17.73;;
44508;SDS011;30214;52.246;14.408;2023-08-20T01:45:46;20.27;;;17.50;;
44508;SDS011;30214;52.246;14.408;2023-08-20T01:48:14;22.50;;;18.98;;
44508;SDS011;30214;52.246;14.408;2023-08-20T01:50:41;20.17;;;18.17;;
44508;SDS011;30214;52.246;14.408;2023-08-20T01:53:08;19.55;;;17.45;;
44508;SDS011;30214;52.246;14.408;2023-08-20T01:55:35;23.73;;;17.65;;
44508;SDS011;30214;52.246;14.408;2023-08-20T01:58:02;19.85;;;17.75;;
44508;SDS011;30214;52.246;14.408;2023-08-20T02:00:30;20.35;;;17.48;;
44508;SDS011;30214;52.246;14.408;2023-08-20T02:03:00;19.05;;;16.60;;
44508;SDS011;30214;52.246;14.408;2023-08-20T02:05:27;23.58;;;18.23;;
44508;SDS011;30214;52.246;14.408;2023-08-20T02:07:54;19.63;;;17.63;;
44508;SDS011;30214;52.246;14.408;2023-08-20T02:10:21;20.75;;;18.27;;
44508;SDS011;30214;52.246;14.408;2023-08-20T02:12:48;20.10;;;17.67;;
44508;SDS011;30214;52.246;14.408;2023-08-20T02:15:16;18.48;;;16.55;;
44508;SDS011;30214;52.246;14.408;2023-08-20T02:17:43;20.13;;;17.17;;
44508;SDS011;30214;52.246;14.408;2023-08-20T02:20:11;20.65;;;17.25;;
44508;SDS011;30214;52.246;14.408;2023-08-20T02:22:38;20.50;;;18.42;;
44508;SDS011;30214;52.246;14.408;2023-08-20T02:25:05;20.35;;;17.85;;
44508;SDS011;30214;52.246;14.408;2023-08-20T02:27:33;20.05;;;18.02;;
44508;SDS011;30214;52.246;14.408;2023-08-20T02:29:59;21.45;;;16.67;;
44508;SDS011;30214;52.246;14.408;2023-08-20T02:32:27;16.83;;;15.15;;
44508;SDS011;30214;52.246;14.408;2023-08-20T02:34:57;21.58;;;17.70;;
44508;SDS011;30214;52.246;14.408;2023-08-20T02:37:26;21.02;;;17.98;;
44508;SDS011;30214;52.246;14.408;2023-08-20T02:39:53;20.30;;;18.08;;
44508;SDS011;30214;52.246;14.408;2023-08-20T02:42:20;20.70;;;17.67;;
44508;SDS011;30214;52.246;14.408;2023-08-20T02:44:47;29.67;;;17.27;;
44508;SDS011;30214;52.246;14.408;2023-08-20T02:47:14;23.92;;;16.92;;
44508;SDS011;30214;52.246;14.408;2023-08-20T02:49:41;19.10;;;17.20;;
44508;SDS011;30214;52.246;14.408;2023-08-20T02:52:08;20.95;;;17.15;;
44508;SDS011;30214;52.246;14.408;2023-08-20T02:54:36;21.02;;;16.65;;
44508;SDS011;30214;52.246;14.408;2023-08-20T02:57:03;18.55;;;16.40;;
44508;SDS011;30214;52.246;14.408;2023-08-20T02:59:30;19.25;;;16.58;;
44508;SDS011;30214;52.246;14.408;2023-08-20T03:01:57;18.23;;;15.40;;
44508;SDS011;30214;52.246;14.408;2023-08-20T03:04:24;18.77;;;15.25;;
44508;SDS011;30214;52.246;14.408;2023-08-20T03:06:51;16.50;;;14.63;;
44508;SDS011;30214;52.246;14.408;2023-08-20T03:09:18;19.20;;;16.27;;
44508;SDS011;30214;52.246;14.408;2023-08-20T03:11:46;18.77;;;16.38;;
44508;SDS011;30214;52.246;14.408;2023-08-20T03:14:13;24.45;;;16.05;;
44508;SDS011;30214;52.246;14.408;2023-08-20T03:16:40;22.92;;;16.73;;
44508;SDS011;30214;52.246;14.408;2023-08-20T03:19:06;19.15;;;16.77;;
44508;SDS011;30214;52.246;14.408;2023-08-20T03:21:33;17.73;;;15.98;;
44508;SDS011;30214;52.246;14.408;2023-08-20T03:24:00;18.55;;;16.27;;
44508;SDS011;30214;52.246;14.408;2023-08-20T03:26:28;18.77;;;15.80;;
44508;SDS011;30214;52.246;14.408;2023-08-20T03:28:56;19.95;;;17.85;;
44508;SDS011;30214;52.246;14.408;2023-08-20T03:31:24;20.33;;;18.02;;
44508;SDS011;30214;52.246;14.408;2023-08-20T03:33:51;23.40;;;18.35;;
44508;SDS011;30214;52.246;14.408;2023-08-20T03:36:18;20.70;;;17.92;;
44508;SDS011;30214;52.246;14.408;2023-08-20T03:38:44;20.80;;;17.92;;
44508;SDS011;30214;52.246;14.408;2023-08-20T03:41:11;22.65;;;17.95;;
44508;SDS011;30214;52.246;14.408;2023-08-20T03:43:38;19.10;;;17.30;;
44508;SDS011;30214;52.246;14.408;2023-08-20T03:46:07;19.83;;;16.85;;
44508;SDS011;30214;52.246;14.408;2023-08-20T03:48:34;18.73;;;16.67;;
44508;SDS011;30214;52.246;14.408;2023-08-20T03:51:01;19.88;;;17.27;;
44508;SDS011;30214;52.246;14.408;2023-08-20T03:53:28;17.88;;;15.20;;
44508;SDS011;30214;52.246;14.408;2023-08-20T03:55:55;21.77;;;15.15;;
44508;SDS011;30214;52.246;14.408;2023-08-20T03:58:21;16.90;;;15.05;;
44508;SDS011;30214;52.246;14.408;2023-08-20T04:00:48;18.08;;;15.85;;
44508;SDS011;30214;52.246;14.408;2023-08-20T04:03:17;19.90;;;15.98;;
44508;SDS011;30214;52.246;14.408;2023-08-20T04:05:44;19.67;;;16.75;;
44508;SDS011;30214;52.246;14.408;2023-08-20T04:08:11;19.88;;;17.77;;
44508;SDS011;30214;52.246;14.408;2023-08-20T04:10:42;20.00;;;17.92;;
44508;SDS011;30214;52.246;14.408;2023-08-20T04:13:10;19.75;;;17.67;;
44508;SDS011;30214;52.246;14.408;2023-08-20T04:15:39;22.83;;;17.35;;
44508;SDS011;30214;52.246;14.408;2023-08-20T04:18:07;20.45;;;18.25;;
44508;SDS011;30214;52.246;14.408;2023-08-20T04:20:35;19.58;;;17.55;;
44508;SDS011;30214;52.246;14.408;2023-08-20T04:23:03;24.27;;;17.92;;
44508;SDS011;30214;52.246;14.408;2023-08-20T04:25:33;18.73;;;16.83;;
44508;SDS011;30214;52.246;14.408;2023-08-20T04:28:00;19.92;;;17.70;;
44508;SDS011;30214;52.246;14.408;2023-08-20T04:30:27;24.88;;;19.17;;
44508;SDS011;30214;52.246;14.408;2023-08-20T04:32:54;20.88;;;18.55;;
44508;SDS011;30214;52.246;14.408;2023-08-20T04:35:21;27.02;;;19.48;;
44508;SDS011;30214;52.246;14.408;2023-08-20T04:37:51;27.58;;;19.85;;
44508;SDS011;30214;52.246;14.408;2023-08-20T04:40:17;23.50;;;19.98;;
44508;SDS011;30214;52.246;14.408;2023-08-20T04:42:45;23.08;;;19.40;;
44508;SDS011;30214;52.246;14.408;2023-08-20T04:45:12;21.15;;;19.05;;
44508;SDS011;30214;52.246;14.408;2023-08-20T04:47:39;20.10;;;18.00;;
44508;SDS011;30214;52.246;14.408;2023-08-20T04:50:07;20.70;;;18.20;;
44508;SDS011;30214;52.246;14.408;2023-08-20T04:52:34;20.65;;;17.23;;
44508;SDS011;30214;52.246;14.408;2023-08-20T04:55:03;19.65;;;17.40;;
44508;SDS011;30214;52.246;14.408;2023-08-20T04:57:32;23.38;;;17.42;;
44508;SDS011;30214;52.246;14.408;2023-08-20T05:00:01;19.23;;;17.17;;
44508;SDS011;30214;52.246;14.408;2023-08-20T05:02:39;20.70;;;16.80;;
44508;SDS011;30214;52.246;14.408;2023-08-20T05:05:10;19.05;;;17.13;;
44508;SDS011;30214;52.246;14.408;2023-08-20T05:07:37;19.00;;;16.55;;
44508;SDS011;30214;52.246;14.408;2023-08-20T05:10:07;18.05;;;16.08;;
44508;SDS011;30214;52.246;14.408;2023-08-20T05:12:34;17.05;;;15.30;;
44508;SDS011;30214;52.246;14.408;2023-08-20T05:15:01;17.20;;;15.40;;
44508;SDS011;30214;52.246;14.408;2023-08-20T05:17:28;18.70;;;16.85;;
44508;SDS011;30214;52.246;14.408;2023-08-20T05:19:56;21.40;;;15.82;;
44508;SDS011;30214;52.246;14.408;2023-08-20T05:22:23;17.98;;;15.05;;
44508;SDS011;30214;52.246;14.408;2023-08-20T05:24:50;18.02;;;16.10;;
44508;SDS011;30214;52.246;14.408;2023-08-20T05:27:19;16.48;;;14.88;;
44508;SDS011;30214;52.246;14.408;2023-08-20T05:29:49;19.58;;;14.90;;
44508;SDS011;30214;52.246;14.408;2023-08-20T05:32:17;16.95;;;15.07;;
44508;SDS011;30214;52.246;14.408;2023-08-20T05:34:44;16.80;;;14.10;;
44508;SDS011;30214;52.246;14.408;2023-08-20T05:37:11;17.08;;;13.65;;
44508;SDS011;30214;52.246;14.408;2023-08-20T05:39:40;16.42;;;14.75;;
44508;SDS011;30214;52.246;14.408;2023-08-20T05:42:07;15.27;;;13.77;;
44508;SDS011;30214;52.246;14.408;2023-08-20T05:44:41;17.23;;;13.87;;
44508;SDS011;30214;52.246;14.408;2023-08-20T05:47:12;14.77;;;13.25;;
44508;SDS011;30214;52.246;14.408;2023-08-20T05:49:39;18.58;;;13.75;;
44508;SDS011;30214;52.246;14.408;2023-08-20T05:52:05;16.17;;;13.77;;
44508;SDS011;30214;52.246;14.408;2023-08-20T05:54:33;16.13;;;13.18;;
44508;SDS011;30214;52.246;14.408;2023-08-20T05:57:00;16.15;;;12.40;;
44508;SDS011;30214;52.246;14.408;2023-08-20T05:59:28;14.57;;;13.18;;
44508;SDS011;30214;52.246;14.408;2023-08-20T06:01:56;13.77;;;12.32;;
44508;SDS011;30214;52.246;14.408;2023-08-20T06:04:23;14.30;;;12.73;;
44508;SDS011;30214;52.246;14.408;2023-08-20T06:06:50;14.63;;;12.18;;
44508;SDS011;30214;52.246;14.408;2023-08-20T06:09:17;16.23;;;12.07;;
44508;SDS011;30214;52.246;14.408;2023-08-20T06:11:43;13.60;;;12.23;;
44508;SDS011;30214;52.246;14.408;2023-08-20T06:14:10;15.05;;;11.73;;
44508;SDS011;30214;52.246;14.408;2023-08-20T06:16:37;14.75;;;11.70;;
44508;SDS011;30214;52.246;14.408;2023-08-20T06:19:05;13.48;;;11.32;;
44508;SDS011;30214;52.246;14.408;2023-08-20T06:21:32;13.25;;;11.80;;
44508;SDS011;30214;52.246;14.408;2023-08-20T06:23:59;12.80;;;11.02;;
44508;SDS011;30214;52.246;14.408;2023-08-20T06:26:27;12.07;;;10.80;;
44508;SDS011;30214;52.246;14.408;2023-08-20T06:28:54;13.07;;;10.93;;
44508;SDS011;30214;52.246;14.408;2023-08-20T06:31:21;12.48;;;11.15;;
44508;SDS011;30214;52.246;14.408;2023-08-20T06:33:48;12.77;;;11.68;;
44508;SDS011;30214;52.246;14.408;2023-08-20T06:36:16;15.55;;;10.55;;
44508;SDS011;30214;52.246;14.408;2023-08-20T06:38:43;11.90;;;10.70;;
44508;SDS011;30214;52.246;14.408;2023-08-20T06:41:10;12.15;;;10.85;;
44508;SDS011;30214;52.246;14.408;2023-08-20T06:43:37;12.20;;;10.75;;
44508;SDS011;30214;52.246;14.408;2023-08-20T06:46:04;13.55;;;10.63;;
44508;SDS011;30214;52.246;14.408;2023-08-20T06:48:31;15.65;;;10.30;;
44508;SDS011;30214;52.246;14.408;2023-08-20T06:50:58;13.68;;;10.23;;
44508;SDS011;30214;52.246;14.408;2023-08-20T06:53:34;13.73;;;10.48;;
44508;SDS011;30214;52.246;14.408;2023-08-20T06:56:01;13.13;;;10.02;;
44508;SDS011;30214;52.246;14.408;2023-08-20T06:58:28;12.48;;;11.18;;
44508;SDS011;30214;52.246;14.408;2023-08-20T07:00:55;13.68;;;10.25;;
44508;SDS011;30214;52.246;14.408;2023-08-20T07:03:32;14.48;;;10.93;;
44508;SDS011;30214;52.246;14.408;2023-08-20T07:05:59;12.05;;;10.45;;
44508;SDS011;30214;52.246;14.408;2023-08-20T07:08:26;11.68;;;10.43;;
44508;SDS011;30214;52.246;14.408;2023-08-20T07:10:54;12.32;;;10.27;;
44508;SDS011;30214;52.246;14.408;2023-08-20T07:13:21;15.88;;;11.05;;
44508;SDS011;30214;52.246;14.408;2023-08-20T07:15:48;13.38;;;10.30;;
44508;SDS011;30214;52.246;14.408;2023-08-20T07:18:15;11.27;;;10.18;;
44508;SDS011;30214;52.246;14.408;2023-08-20T07:20:42;11.35;;;10.10;;
44508;SDS011;30214;52.246;14.408;2023-08-20T07:23:10;13.90;;;10.73;;
44508;SDS011;30214;52.246;14.408;2023-08-20T07:25:37;11.52;;;10.35;;
44508;SDS011;30214;52.246;14.408;2023-08-20T07:28:07;10.73;;;9.63;;
44508;SDS011;30214;52.246;14.408;2023-08-20T07:30:35;10.68;;;9.57;;
44508;SDS011;30214;52.246;14.408;2023-08-20T07:33:02;11.38;;;9.43;;
44508;SDS011;30214;52.246;14.408;2023-08-20T07:35:29;11.27;;;9.98;;
44508;SDS011;30214;52.246;14.408;2023-08-20T07:37:56;13.65;;;9.93;;
44508;SDS011;30214;52.246;14.408;2023-08-20T07:40:23;11.18;;;9.18;;
44508;SDS011;30214;52.246;14.408;2023-08-20T07:42:50;10.55;;;9.48;;
44508;SDS011;30214;52.246;14.408;2023-08-20T07:45:18;11.30;;;9.10;;
44508;SDS011;30214;52.246;14.408;2023-08-20T07:47:45;14.73;;;9.52;;
44508;SDS011;30214;52.246;14.408;2023-08-20T07:50:12;10.60;;;9.50;;
44508;SDS011;30214;52.246;14.408;2023-08-20T07:52:39;10.90;;;9.10;;
44508;SDS011;30214;52.246;14.408;2023-08-20T07:55:06;11.15;;;9.35;;
44508;SDS011;30214;52.246;14.408;2023-08-20T07:57:34;10.45;;;8.75;;
44508;SDS011;30214;52.246;14.408;2023-08-20T08:00:01;12.13;;;8.82;;
44508;SDS011;30214;52.246;14.408;2023-08-20T08:02:38;11.05;;;9.07;;
44508;SDS011;30214;52.246;14.408;2023-08-20T08:05:05;13.18;;;8.60;;
44508;SDS011;30214;52.246;14.408;2023-08-20T08:07:33;12.18;;;9.05;;
44508;SDS011;30214;52.246;14.408;2023-08-20T08:10:00;9.55;;;8.13;;
44508;SDS011;30214;52.246;14.408;2023-08-20T08:12:26;13.85;;;8.50;;
44508;SDS011;30214;52.246;14.408;2023-08-20T08:14:53;10.93;;;8.50;;
44508;SDS011;30214;52.246;14.408;2023-08-20T08:17:20;9.50;;;8.30;;
44508;SDS011;30214;52.246;14.408;2023-08-20T08:19:48;9.15;;;8.13;;
44508;SDS011;30214;52.246;14.408;2023-08-20T08:22:19;13.25;;;8.57;;
44508;SDS011;30214;52.246;14.408;2023-08-20T08:24:45;10.25;;;8.23;;
44508;SDS011;30214;52.246;14.408;2023-08-20T08:27:12;9.68;;;8.35;;
44508;SDS011;30214;52.246;14.408;2023-08-20T08:29:39;12.90;;;8.40;;
44508;SDS011;30214;52.246;14.408;2023-08-20T08:32:06;10.43;;;8.70;;
44508;SDS011;30214;52.246;14.408;2023-08-20T08:34:33;10.88;;;8.32;;
44508;SDS011;30214;52.246;14.408;2023-08-20T08:37:02;9.32;;;8.43;;
44508;SDS011;30214;52.246;14.408;2023-08-20T08:39:29;10.10;;;8.43;;
44508;SDS011;30214;52.246;14.408;2023-08-20T08:42:00;9.40;;;8.43;;
44508;SDS011;30214;52.246;14.408;2023-08-20T08:44:29;12.18;;;8.40;;
44508;SDS011;30214;52.246;14.408;2023-08-20T08:46:57;12.23;;;7.43;;
44508;SDS011;30214;52.246;14.408;2023-08-20T08:49:24;9.95;;;7.90;;
44508;SDS011;30214;52.246;14.408;2023-08-20T08:51:52;10.65;;;7.80;;
44508;SDS011;30214;52.246;14.408;2023-08-20T08:54:24;11.60;;;8.07;;
44508;SDS011;30214;52.246;14.408;2023-08-20T08:56:51;9.75;;;7.72;;
44508;SDS011;30214;52.246;14.408;2023-08-20T08:59:18;9.77;;;8.05;;
44508;SDS011;30214;52.246;14.408;2023-08-20T09:01:46;10.85;;;8.00;;
44508;SDS011;30214;52.246;14.408;2023-08-20T09:04:13;18.00;;;8.15;;
44508;SDS011;30214;52.246;14.408;2023-08-20T09:06:46;9.90;;;8.07;;
44508;SDS011;30214;52.246;14.408;2023-08-20T09:09:14;9.50;;;7.35;;
44508;SDS011;30214;52.246;14.408;2023-08-20T09:11:44;9.68;;;8.02;;
44508;SDS011;30214;52.246;14.408;2023-08-20T09:14:20;11.25;;;6.85;;
44508;SDS011;30214;52.246;14.408;2023-08-20T09:16:53;9.55;;;7.53;;
44508;SDS011;30214;52.246;14.408;2023-08-20T09:19:21;8.90;;;7.63;;
44508;SDS011;30214;52.246;14.408;2023-08-20T09:21:48;8.23;;;7.32;;
44508;SDS011;30214;52.246;14.408;2023-08-20T09:24:25;9.80;;;7.25;;
44508;SDS011;30214;52.246;14.408;2023-08-20T09:26:57;8.77;;;7.22;;
44508;SDS011;30214;52.246;14.408;2023-08-20T09:29:25;10.73;;;7.28;;
44508;SDS011;30214;52.246;14.408;2023-08-20T09:31:56;11.45;;;7.07;;
44508;SDS011;30214;52.246;14.408;2023-08-20T09:34:35;9.35;;;6.90;;
44508;SDS011;30214;52.246;14.408;2023-08-20T09:37:03;9.18;;;6.57;;
44508;SDS011;30214;52.246;14.408;2023-08-20T09:39:33;8.20;;;6.60;;
44508;SDS011;30214;52.246;14.408;2023-08-20T09:42:02;8.10;;;6.15;;
44508;SDS011;30214;52.246;14.408;2023-08-20T09:44:32;9.80;;;7.07;;
44508;SDS011;30214;52.246;14.408;2023-08-20T09:47:00;9.68;;;6.65;;
44508;SDS011;30214;52.246;14.408;2023-08-20T09:49:30;9.30;;;6.82;;
44508;SDS011;30214;52.246;14.408;2023-08-20T09:52:04;7.80;;;6.97;;
44508;SDS011;30214;52.246;14.408;2023-08-20T09:54:37;9.40;;;6.60;;
44508;SDS011;30214;52.246;14.408;2023-08-20T09:57:14;11.68;;;6.60;;
44508;SDS011;30214;52.246;14.408;2023-08-20T09:59:53;10.75;;;6.53;;
44508;SDS011;30214;52.246;14.408;2023-08-20T10:02:24;8.10;;;6.90;;
44508;SDS011;30214;52.246;14.408;2023-08-20T10:04:52;9.80;;;6.43;;
44508;SDS011;30214;52.246;14.408;2023-08-20T10:07:19;7.07;;;5.88;;
44508;SDS011;30214;52.246;14.408;2023-08-20T10:09:49;7.82;;;6.35;;
44508;SDS011;30214;52.246;14.408;2023-08-20T10:12:18;7.95;;;6.57;;
44508;SDS011;30214;52.246;14.408;2023-08-20T10:14:46;6.72;;;5.95;;
44508;SDS011;30214;52.246;14.408;2023-08-20T10:17:13;7.93;;;6.15;;
44508;SDS011;30214;52.246;14.408;2023-08-20T10:19:40;10.50;;;6.32;;
44508;SDS011;30214;52.246;14.408;2023-08-20T10:22:07;9.48;;;6.72;;
44508;SDS011;30214;52.246;14.408;2023-08-20T10:24:41;9.52;;;6.10;;
44508;SDS011;30214;52.246;14.408;2023-08-20T10:27:16;8.40;;;6.43;;
44508;SDS011;30214;52.246;14.408;2023-08-20T10:29:52;8.15;;;6.00;;
44508;SDS011;30214;52.246;14.408;2023-08-20T10:32:20;8.20;;;6.15;;
44508;SDS011;30214;52.246;14.408;2023-08-20T10:35:07;9.38;;;6.45;;
44508;SDS011;30214;52.246;14.408;2023-08-20T10:37:34;8.05;;;6.00;;
44508;SDS011;30214;52.246;14.408;2023-08-20T10:40:02;7.72;;;6.03;;
44508;SDS011;30214;52.246;14.408;2023-08-20T10:42:31;7.22;;;5.95;;
44508;SDS011;30214;52.246;14.408;2023-08-20T10:45:01;8.05;;;5.97;;
44508;SDS011;30214;52.246;14.408;2023-08-20T10:47:37;7.85;;;6.32;;
44508;SDS011;30214;52.246;14.408;2023-08-20T10:50:10;8.75;;;6.30;;
44508;SDS011;30214;52.246;14.408;2023-08-20T10:52:41;8.20;;;6.47;;
44508;SDS011;30214;52.246;14.408;2023-08-20T10:55:13;9.88;;;7.50;;
44508;SDS011;30214;52.246;14.408;2023-08-20T10:57:42;7.93;;;6.63;;
44508;SDS011;30214;52.246;14.408;2023-08-20T11:00:09;9.32;;;7.57;;
44508;SDS011;30214;52.246;14.408;2023-08-20T11:02:42;11.65;;;7.78;;
44508;SDS011;30214;52.246;14.408;2023-08-20T11:05:16;9.48;;;7.60;;
44508;SDS011;30214;52.246;14.408;2023-08-20T11:07:44;9.93;;;7.80;;
44508;SDS011;30214;52.246;14.408;2023-08-20T11:10:13;10.40;;;8.45;;
44508;SDS011;30214;52.246;14.408;2023-08-20T11:12:42;9.30;;;7.82;;
44508;SDS011;30214;52.246;14.408;2023-08-20T11:15:09;9.35;;;8.10;;
44508;SDS011;30214;52.246;14.408;2023-08-20T11:17:41;8.20;;;7.38;;
44508;SDS011;30214;52.246;14.408;2023-08-20T11:20:09;10.55;;;7.93;;
44508;SDS011;30214;52.246;14.408;2023-08-20T11:22:39;10.43;;;8.25;;
44508;SDS011;30214;52.246;14.408;2023-08-20T11:25:10;10.77;;;7.55;;
44508;SDS011;30214;52.246;14.408;2023-08-20T11:27:41;10.88;;;8.48;;
44508;SDS011;30214;52.246;14.408;2023-08-20T11:30:09;11.27;;;7.75;;
44508;SDS011;30214;52.246;14.408;2023-08-20T11:32:37;10.68;;;7.85;;
44508;SDS011;30214;52.246;14.408;2023-08-20T11:35:04;8.80;;;7.82;;
44508;SDS011;30214;52.246;14.408;2023-08-20T11:37:35;11.88;;;7.85;;
44508;SDS011;30214;52.246;14.408;2023-08-20T11:40:02;8.57;;;7.28;;
44508;SDS011;30214;52.246;14.408;2023-08-20T11:42:33;8.18;;;7.22;;
44508;SDS011;30214;52.246;14.408;2023-08-20T11:45:02;9.18;;;7.47;;
44508;SDS011;30214;52.246;14.408;2023-08-20T11:47:29;8.68;;;7.20;;
44508;SDS011;30214;52.246;14.408;2023-08-20T11:50:04;10.45;;;7.55;;
44508;SDS011;30214;52.246;14.408;2023-08-20T11:52:32;9.35;;;7.28;;
44508;SDS011;30214;52.246;14.408;2023-08-20T11:54:59;9.45;;;7.53;;
44508;SDS011;30214;52.246;14.408;2023-08-20T11:57:26;8.90;;;7.32;;
44508;SDS011;30214;52.246;14.408;2023-08-20T11:59:55;8.18;;;7.03;;
44508;SDS011;30214;52.246;14.408;2023-08-20T12:02:26;8.23;;;6.72;;
44508;SDS011;30214;52.246;14.408;2023-08-20T12:04:55;8.73;;;7.35;;
44508;SDS011;30214;52.246;14.408;2023-08-20T12:07:24;7.95;;;7.13;;
44508;SDS011;30214;52.246;14.408;2023-08-20T12:09:52;9.70;;;7.13;;
44508;SDS011;30214;52.246;14.408;2023-08-20T12:12:20;9.32;;;7.10;;
44508;SDS011;30214;52.246;14.408;2023-08-20T12:14:47;10.27;;;7.30;;
44508;SDS011;30214;52.246;14.408;2023-08-20T12:17:16;8.95;;;7.22;;
44508;SDS011;30214;52.246;14.408;2023-08-20T12:19:45;9.68;;;7.10;;
44508;SDS011;30214;52.246;14.408;2023-08-20T12:22:12;8.15;;;6.85;;
44508;SDS011;30214;52.246;14.408;2023-08-20T12:24:39;8.20;;;7.03;;
44508;SDS011;30214;52.246;14.408;2023-08-20T12:27:06;9.40;;;7.35;;
44508;SDS011;30214;52.246;14.408;2023-08-20T12:29:33;10.02;;;7.20;;
44508;SDS011;30214;52.246;14.408;2023-08-20T12:32:00;9.65;;;7.10;;
44508;SDS011;30214;52.246;14.408;2023-08-20T12:34:29;12.93;;;6.80;;
44508;SDS011;30214;52.246;14.408;2023-08-20T12:36:58;7.85;;;7.05;;
44508;SDS011;30214;52.246;14.408;2023-08-20T12:39:24;13.00;;;7.03;;
44508;SDS011;30214;52.246;14.408;2023-08-20T12:41:51;7.60;;;6.72;;
44508;SDS011;30214;52.246;14.408;2023-08-20T12:44:18;10.75;;;6.90;;
44508;SDS011;30214;52.246;14.408;2023-08-20T12:46:45;7.90;;;6.53;;
44508;SDS011;30214;52.246;14.408;2023-08-20T12:49:12;9.32;;;6.20;;
44508;SDS011;30214;52.246;14.408;2023-08-20T12:51:39;7.82;;;6.30;;
44508;SDS011;30214;52.246;14.408;2023-08-20T12:54:07;8.68;;;6.15;;
44508;SDS011;30214;52.246;14.408;2023-08-20T12:56:34;7.97;;;6.00;;
44508;SDS011;30214;52.246;14.408;2023-08-20T12:59:01;8.63;;;5.90;;
44508;SDS011;30214;52.246;14.408;2023-08-20T13:01:28;7.13;;;6.20;;
44508;SDS011;30214;52.246;14.408;2023-08-20T13:03:55;8.10;;;5.78;;
44508;SDS011;30214;52.246;14.408;2023-08-20T13:06:23;6.82;;;5.15;;
44508;SDS011;30214;52.246;14.408;2023-08-20T13:08:50;7.53;;;6.53;;
44508;SDS011;30214;52.246;14.408;2023-08-20T13:11:19;7.93;;;6.50;;
44508;SDS011;30214;52.246;14.408;2023-08-20T13:13:47;7.82;;;6.47;;
44508;SDS011;30214;52.246;14.408;2023-08-20T13:16:15;6.85;;;6.15;;
44508;SDS011;30214;52.246;14.408;2023-08-20T13:18:44;8.95;;;6.07;;
44508;SDS011;30214;52.246;14.408;2023-08-20T13:21:11;6.85;;;5.95;;
44508;SDS011;30214;52.246;14.408;2023-08-20T13:23:38;6.80;;;6.07;;
44508;SDS011;30214;52.246;14.408;2023-08-20T13:26:06;7.93;;;6.05;;
44508;SDS011;30214;52.246;14.408;2023-08-20T13:28:34;9.50;;;5.60;;
44508;SDS011;30214;52.246;14.408;2023-08-20T13:31:01;7.95;;;5.70;;
44508;SDS011;30214;52.246;14.408;2023-08-20T13:33:28;6.28;;;5.43;;
44508;SDS011;30214;52.246;14.408;2023-08-20T13:35:55;8.05;;;5.78;;
44508;SDS011;30214;52.246;14.408;2023-08-20T13:38:22;8.70;;;5.55;;
44508;SDS011;30214;52.246;14.408;2023-08-20T13:40:50;7.40;;;5.43;;
44508;SDS011;30214;52.246;14.408;2023-08-20T13:43:17;8.13;;;5.55;;
44508;SDS011;30214;52.246;14.408;2023-08-20T13:45:45;7.05;;;4.80;;
44508;SDS011;30214;52.246;14.408;2023-08-20T13:48:12;6.55;;;5.10;;
44508;SDS011;30214;52.246;14.408;2023-08-20T13:50:39;7.60;;;5.10;;
44508;SDS011;30214;52.246;14.408;2023-08-20T13:53:06;6.93;;;5.03;;
44508;SDS011;30214;52.246;14.408;2023-08-20T13:55:33;6.72;;;4.40;;
44508;SDS011;30214;52.246;14.408;2023-08-20T13:58:00;6.82;;;4.38;;
44508;SDS011;30214;52.246;14.408;2023-08-20T14:00:27;6.35;;;4.15;;
44508;SDS011;30214;52.246;14.408;2023-08-20T14:02:55;6.47;;;4.22;;
44508;SDS011;30214;52.246;14.408;2023-08-20T14:05:23;5.55;;;4.38;;
44508;SDS011;30214;52.246;14.408;2023-08-20T14:07:50;6.32;;;4.30;;
44508;SDS011;30214;52.246;14.408;2023-08-20T14:10:17;6.35;;;4.45;;
44508;SDS011;30214;52.246;14.408;2023-08-20T14:12:44;8.05;;;4.70;;
44508;SDS011;30214;52.246;14.408;2023-08-20T14:15:11;5.95;;;4.20;;
44508;SDS011;30214;52.246;14.408;2023-08-20T14:17:38;6.45;;;4.55;;
44508;SDS011;30214;52.246;14.408;2023-08-20T14:20:07;8.30;;;4.95;;
44508;SDS011;30214;52.246;14.408;2023-08-20T14:22:36;6.95;;;4.93;;
44508;SDS011;30214;52.246;14.408;2023-08-20T14:25:03;8.65;;;5.53;;